createdAt,value
2023-07-03T00:00:20.665Z,15.17
2023-07-03T00:03:23.832Z,15.87
2023-07-03T00:06:26.944Z,17.77
2023-07-03T00:09:30.029Z,16.97
2023-07-03T00:12:34.495Z,16.97
2023-07-03T00:15:38.011Z,16.20
2023-07-03T00:18:41.036Z,16.70
2023-07-03T00:21:45.074Z,16.60
2023-07-03T00:24:48.403Z,16.43
2023-07-03T00:27:55.131Z,17.37
2023-07-03T00:30:58.239Z,16.80
2023-07-03T00:34:01.283Z,16.70
2023-07-03T00:37:04.482Z,16.70
2023-07-03T00:40:10.201Z,17.20
2023-07-03T00:43:15.547Z,17.67
2023-07-03T00:46:18.744Z,17.77
2023-07-03T00:49:22.392Z,16.73
2023-07-03T00:52:25.769Z,17.20
2023-07-03T00:55:29.192Z,18.20
2023-07-03T00:58:34.145Z,17.30
2023-07-03T01:01:45.261Z,18.03
2023-07-03T01:04:53.539Z,16.87
2023-07-03T01:07:58.104Z,16.80
2023-07-03T01:11:01.712Z,17.03
2023-07-03T01:14:08.572Z,17.13
2023-07-03T01:17:12.658Z,17.50
2023-07-03T01:20:19.919Z,17.90
2023-07-03T01:23:29.856Z,17.63
2023-07-03T01:26:35.455Z,17.40
2023-07-03T01:29:41.760Z,17.93
2023-07-03T01:32:47.890Z,18.27
2023-07-03T01:35:53.183Z,17.50
2023-07-03T01:38:57.436Z,18.17
2023-07-03T01:42:02.514Z,18.50
2023-07-03T01:45:06.460Z,18.00
2023-07-03T01:48:10.017Z,18.13
2023-07-03T01:51:21.507Z,17.93
2023-07-03T01:54:31.789Z,19.67
2023-07-03T01:57:47.497Z,17.90
2023-07-03T02:00:54.285Z,18.07
2023-07-03T02:04:02.581Z,18.30
2023-07-03T02:07:08.468Z,20.33
2023-07-03T02:10:12.406Z,18.10
2023-07-03T02:13:16.828Z,19.10
2023-07-03T02:16:19.877Z,18.67
2023-07-03T02:19:30.159Z,18.93
2023-07-03T02:22:33.276Z,19.10
2023-07-03T02:25:36.886Z,18.63
2023-07-03T02:28:41.487Z,19.80
2023-07-03T02:31:44.533Z,19.80
2023-07-03T02:34:47.609Z,18.83
2023-07-03T02:37:50.612Z,19.17
2023-07-03T02:40:53.660Z,17.60
2023-07-03T02:43:58.186Z,19.60
2023-07-03T02:47:01.404Z,19.40
2023-07-03T02:50:05.072Z,18.73
2023-07-03T02:53:08.696Z,18.90
2023-07-03T02:56:12.160Z,18.73
2023-07-03T02:59:16.663Z,23.43
2023-07-03T03:02:21.609Z,22.87
2023-07-03T03:05:24.732Z,30.83
2023-07-03T03:08:27.822Z,26.30
2023-07-03T03:11:31.527Z,28.47
2023-07-03T03:14:36.592Z,25.60
2023-07-03T03:17:39.799Z,23.80
2023-07-03T03:20:43.971Z,26.50
2023-07-03T03:23:48.154Z,20.60
2023-07-03T03:26:51.255Z,19.10
2023-07-03T03:29:55.704Z,32.40
2023-07-03T03:32:58.919Z,31.90
2023-07-03T03:36:02.089Z,26.47
2023-07-03T03:39:05.608Z,21.23
2023-07-03T03:42:10.711Z,20.97
2023-07-03T03:45:15.164Z,26.10
2023-07-03T03:48:18.305Z,32.57
2023-07-03T03:51:21.376Z,26.40
2023-07-03T03:54:24.610Z,19.90
2023-07-03T03:57:27.882Z,20.00
2023-07-03T04:00:32.443Z,18.40
2023-07-03T04:03:35.708Z,19.50
2023-07-03T04:06:39.496Z,36.37
2023-07-03T04:09:42.575Z,29.90
2023-07-03T04:12:45.659Z,22.20
2023-07-03T04:16:00.668Z,20.30
2023-07-03T04:19:04.181Z,21.20
2023-07-03T04:22:07.623Z,20.30
2023-07-03T04:25:11.657Z,19.77
2023-07-03T04:28:15.556Z,20.47
2023-07-03T04:31:20.176Z,22.07
2023-07-03T04:34:23.484Z,20.37
2023-07-03T04:37:28.207Z,19.70
2023-07-03T04:40:31.603Z,18.90
2023-07-03T04:43:34.648Z,19.27
2023-07-03T04:46:39.854Z,19.73
2023-07-03T04:49:42.950Z,18.70
2023-07-03T04:52:47.700Z,19.50
2023-07-03T04:55:51.445Z,17.97
2023-07-03T04:58:54.749Z,19.27
2023-07-03T05:01:59.374Z,19.17
2023-07-03T05:05:02.773Z,19.30
2023-07-03T05:08:06.859Z,19.47
2023-07-03T05:11:10.009Z,18.07
2023-07-03T05:14:13.188Z,18.10
2023-07-03T05:17:17.617Z,17.70
2023-07-03T05:20:23.284Z,19.27
2023-07-03T05:23:26.388Z,18.83
2023-07-03T05:26:29.499Z,18.30
2023-07-03T05:29:34.786Z,19.47
2023-07-03T05:32:39.601Z,20.40
2023-07-03T05:35:50.659Z,19.37
2023-07-03T05:38:54.468Z,18.43
2023-07-03T05:41:57.637Z,18.70
2023-07-03T05:45:00.837Z,18.30
2023-07-03T05:48:05.674Z,17.00
2023-07-03T05:51:08.830Z,18.50
2023-07-03T05:54:11.866Z,18.33
2023-07-03T05:57:15.006Z,17.73
2023-07-03T06:00:19.002Z,17.70
2023-07-03T06:03:26.152Z,17.00
2023-07-03T06:06:29.530Z,16.50
2023-07-03T06:09:36.506Z,16.47
2023-07-03T06:12:39.961Z,16.10
2023-07-03T06:15:43.219Z,16.60
2023-07-03T06:18:47.790Z,16.30
2023-07-03T06:21:50.831Z,17.57
2023-07-03T06:24:53.928Z,17.63
2023-07-03T06:27:57.060Z,16.10
2023-07-03T06:31:00.390Z,16.03
2023-07-03T06:34:05.763Z,15.90
2023-07-03T06:37:08.848Z,16.00
2023-07-03T06:40:15.784Z,16.47
2023-07-03T06:43:18.876Z,15.60
2023-07-03T06:46:22.607Z,15.77
2023-07-03T06:49:27.156Z,15.90
2023-07-03T06:52:30.202Z,15.57
2023-07-03T06:55:33.386Z,15.50
2023-07-03T06:58:37.130Z,14.97
2023-07-03T07:01:42.609Z,16.63
2023-07-03T07:04:47.424Z,16.03
2023-07-03T07:07:50.530Z,15.03
2023-07-03T07:10:53.851Z,14.73
2023-07-03T07:13:59.340Z,14.77
2023-07-03T07:17:02.461Z,14.40
2023-07-03T07:20:08.499Z,15.17
2023-07-03T07:23:13.463Z,14.07
2023-07-03T07:26:16.684Z,13.77
2023-07-03T07:29:20.274Z,14.27
2023-07-03T07:32:26.304Z,14.20
2023-07-03T07:35:30.968Z,13.73
2023-07-03T07:38:34.147Z,14.10
2023-07-03T07:41:37.920Z,13.07
2023-07-03T07:44:41.067Z,13.73
2023-07-03T07:47:44.331Z,13.67
2023-07-03T07:50:48.931Z,13.43
2023-07-03T07:53:52.722Z,14.87
2023-07-03T07:56:55.925Z,13.40
2023-07-03T07:59:59.309Z,12.77
2023-07-03T08:03:02.578Z,12.93
2023-07-03T08:06:07.559Z,13.93
2023-07-03T08:09:10.751Z,12.70
2023-07-03T08:12:13.912Z,12.80
2023-07-03T08:15:17.385Z,13.20
2023-07-03T08:18:21.561Z,13.17
2023-07-03T08:21:26.154Z,12.97
2023-07-03T08:24:29.389Z,12.50
2023-07-03T08:27:32.637Z,11.63
2023-07-03T08:30:35.841Z,12.20
2023-07-03T08:33:38.973Z,12.50
2023-07-03T08:39:49.820Z,12.57
2023-07-03T08:42:55.912Z,12.40
2023-07-03T08:45:59.667Z,12.70
2023-07-03T08:49:05.477Z,11.73
2023-07-03T08:52:10.906Z,12.33
2023-07-03T08:55:18.649Z,11.63
2023-07-03T08:58:22.609Z,12.17
2023-07-03T09:01:33.751Z,11.97
2023-07-03T09:04:49.631Z,12.17
2023-07-03T09:07:57.146Z,11.07
2023-07-03T09:11:01.126Z,12.83
2023-07-03T09:14:05.422Z,11.90
2023-07-03T09:17:11.040Z,11.03
2023-07-03T09:20:16.818Z,11.53
2023-07-03T09:23:24.000Z,10.80
2023-07-03T09:26:34.357Z,11.17
2023-07-03T09:29:38.963Z,11.60
2023-07-03T09:32:42.169Z,11.03
2023-07-03T09:35:45.339Z,10.90
2023-07-03T09:38:49.844Z,10.70
2023-07-03T09:41:54.385Z,11.60
2023-07-03T09:44:57.530Z,11.40
2023-07-03T09:48:04.194Z,11.50
2023-07-03T09:51:09.112Z,11.10
2023-07-03T09:54:23.094Z,11.57
2023-07-03T09:57:28.184Z,10.87
2023-07-03T10:00:31.761Z,10.73
2023-07-03T10:03:38.446Z,11.43
2023-07-03T10:06:45.624Z,11.97
2023-07-03T10:13:05.246Z,11.03
2023-07-03T10:16:09.312Z,11.07
2023-07-03T10:19:12.998Z,11.07
2023-07-03T10:22:17.078Z,11.00
2023-07-03T10:25:29.862Z,10.77
2023-07-03T10:28:39.872Z,10.83
2023-07-03T10:31:49.076Z,10.90
2023-07-03T10:35:00.052Z,11.37
2023-07-03T10:38:11.456Z,10.97
2023-07-03T10:41:22.207Z,10.70
2023-07-03T10:44:28.855Z,10.60
2023-07-03T10:47:38.572Z,10.60
2023-07-03T10:50:50.369Z,11.27
2023-07-03T10:53:57.359Z,10.60
2023-07-03T10:57:04.988Z,11.47
2023-07-03T11:00:14.370Z,10.30
2023-07-03T11:03:29.485Z,10.77
2023-07-03T11:06:43.752Z,10.83
2023-07-03T11:09:56.052Z,11.10
2023-07-03T11:13:07.336Z,10.60
2023-07-03T11:16:15.433Z,10.03
2023-07-03T11:22:47.963Z,10.87
2023-07-03T11:29:06.261Z,9.30
2023-07-03T11:32:11.345Z,9.53
2023-07-03T11:45:01.819Z,9.40
2023-07-03T11:48:05.621Z,10.30
2023-07-03T11:51:12.357Z,9.50
2023-07-03T11:54:19.806Z,9.50
2023-07-03T11:57:35.275Z,9.70
2023-07-03T12:00:40.051Z,9.50
2023-07-03T12:03:53.312Z,9.50
2023-07-03T12:06:56.499Z,9.10
2023-07-03T12:10:29.261Z,8.47
2023-07-03T12:13:46.572Z,9.07
2023-07-03T12:16:51.283Z,8.70
2023-07-03T12:19:59.504Z,9.07
2023-07-03T12:23:02.744Z,9.10
2023-07-03T12:26:08.365Z,8.90
2023-07-03T12:29:11.437Z,8.40
2023-07-03T12:32:26.370Z,8.47
2023-07-03T12:35:33.084Z,9.20
2023-07-03T12:38:37.156Z,8.30
2023-07-03T12:41:40.413Z,8.80
2023-07-03T12:44:43.591Z,8.93
2023-07-03T12:48:01.582Z,9.20
2023-07-03T12:51:04.779Z,8.13
2023-07-03T12:54:09.334Z,8.77
2023-07-03T12:57:12.944Z,8.50
2023-07-03T13:00:22.398Z,8.47
2023-07-03T13:03:27.060Z,7.63
2023-07-03T13:06:31.816Z,7.70
2023-07-03T13:09:35.045Z,7.10
2023-07-03T13:12:38.216Z,7.67
2023-07-03T13:15:43.736Z,7.60
2023-07-03T13:19:01.546Z,7.30
2023-07-03T13:22:08.926Z,7.73
2023-07-03T13:25:14.421Z,8.50
2023-07-03T13:28:25.404Z,7.30
2023-07-03T13:31:46.620Z,7.63
2023-07-03T13:35:01.681Z,7.47
2023-07-03T13:38:22.081Z,7.70
2023-07-03T13:41:25.426Z,7.00
2023-07-03T13:44:28.806Z,7.30
2023-07-03T13:47:31.923Z,7.03
2023-07-03T13:50:37.235Z,7.43
2023-07-03T13:53:40.267Z,6.97
2023-07-03T13:56:45.447Z,7.30
2023-07-03T13:59:48.473Z,7.40
2023-07-03T14:02:52.170Z,6.57
2023-07-03T14:05:56.756Z,6.83
2023-07-03T14:08:59.818Z,7.23
2023-07-03T14:12:03.400Z,6.13
2023-07-03T14:15:15.430Z,6.83
2023-07-03T14:18:18.859Z,6.50
2023-07-03T14:21:25.374Z,6.63
2023-07-03T14:24:28.859Z,6.87
2023-07-03T14:27:36.104Z,6.87
2023-07-03T14:30:39.309Z,6.30
2023-07-03T14:33:42.517Z,6.90
2023-07-03T14:36:47.038Z,6.80
2023-07-03T14:39:50.165Z,6.40
2023-07-03T14:42:53.539Z,7.30
2023-07-03T14:45:56.741Z,8.03
2023-07-03T14:48:59.872Z,9.30
2023-07-03T14:52:04.432Z,7.90
2023-07-03T14:55:08.442Z,8.87
2023-07-03T14:58:12.086Z,9.30
2023-07-03T15:01:15.322Z,9.13
2023-07-03T15:04:18.787Z,8.17
2023-07-03T15:07:23.377Z,8.40
2023-07-03T15:10:27.468Z,8.47
2023-07-03T15:13:30.704Z,7.63
2023-07-03T15:16:35.780Z,7.70
2023-07-03T15:19:39.553Z,7.47
2023-07-03T15:22:44.011Z,6.93
2023-07-03T15:25:47.036Z,7.70
2023-07-03T15:28:50.261Z,8.17
2023-07-03T15:31:54.641Z,7.60
2023-07-03T15:34:57.730Z,8.97
2023-07-03T15:38:02.188Z,8.10
2023-07-03T15:41:05.288Z,7.60
2023-07-03T15:44:08.430Z,7.77
2023-07-03T15:47:12.431Z,7.23
2023-07-03T15:50:15.886Z,7.30
2023-07-03T15:53:20.620Z,7.10
2023-07-03T15:56:23.743Z,7.37
2023-07-03T15:59:27.201Z,7.03
2023-07-03T16:02:30.925Z,6.97
2023-07-03T16:05:34.008Z,7.17
2023-07-03T16:08:40.845Z,7.20
2023-07-03T16:11:43.990Z,7.43
2023-07-03T16:14:49.098Z,7.67
2023-07-03T16:17:52.401Z,7.53
2023-07-03T16:20:58.036Z,6.80
2023-07-03T16:24:04.210Z,7.57
2023-07-03T16:27:07.624Z,8.70
2023-07-03T16:30:12.002Z,8.33
2023-07-03T16:33:15.302Z,8.23
2023-07-03T16:36:21.577Z,7.90
2023-07-03T16:39:26.246Z,8.20
2023-07-03T16:42:29.451Z,8.47
2023-07-03T16:45:32.638Z,7.80
2023-07-03T16:48:36.030Z,9.50
2023-07-03T16:51:39.085Z,8.60
2023-07-03T16:54:43.727Z,8.70
2023-07-03T16:57:46.788Z,8.37
2023-07-03T17:00:49.854Z,7.57
2023-07-03T17:03:56.438Z,8.03
2023-07-03T17:06:59.861Z,8.00
2023-07-03T17:10:04.498Z,7.70
2023-07-03T17:13:08.358Z,7.73
2023-07-03T17:16:11.943Z,7.47
2023-07-03T17:19:15.211Z,8.30
2023-07-03T17:22:19.645Z,8.80
2023-07-03T17:25:24.170Z,8.33
2023-07-03T17:28:27.299Z,7.20
2023-07-03T17:31:30.478Z,6.63
2023-07-03T17:34:33.556Z,5.73
2023-07-03T17:37:36.641Z,6.17
2023-07-03T17:40:41.812Z,5.53
2023-07-03T17:43:44.927Z,6.07
2023-07-03T17:46:48.161Z,5.90
2023-07-03T17:49:51.300Z,5.90
2023-07-03T17:52:54.442Z,5.77
2023-07-03T17:55:58.963Z,5.77
2023-07-03T17:59:02.112Z,6.10
2023-07-03T18:02:06.988Z,6.60
2023-07-03T18:05:10.412Z,6.70
2023-07-03T18:08:13.884Z,6.80
2023-07-03T18:11:19.369Z,6.77
2023-07-03T18:14:22.678Z,7.40
2023-07-03T18:17:26.222Z,8.07
2023-07-03T18:20:29.295Z,9.40
2023-07-03T18:23:32.651Z,9.60
2023-07-03T18:26:37.050Z,10.63
2023-07-03T18:29:40.710Z,9.83
2023-07-03T18:32:44.173Z,10.80
2023-07-03T18:35:47.282Z,9.90
2023-07-03T18:38:50.715Z,8.87
2023-07-03T18:41:55.200Z,8.37
2023-07-03T18:44:58.282Z,8.53
2023-07-03T18:48:01.431Z,8.20
2023-07-03T18:51:04.821Z,8.73
2023-07-03T18:54:07.973Z,9.53
2023-07-03T18:57:12.791Z,9.17
2023-07-03T19:00:17.033Z,9.60
2023-07-03T19:03:21.385Z,8.80
2023-07-03T19:06:24.660Z,8.80
2023-07-03T19:09:27.767Z,8.70
2023-07-03T19:12:32.335Z,9.00
2023-07-03T19:15:36.563Z,8.80
2023-07-03T19:18:40.643Z,9.30
2023-07-03T19:21:44.469Z,8.93
2023-07-03T19:24:49.046Z,8.80
2023-07-03T19:27:53.595Z,9.80
2023-07-03T19:30:58.765Z,9.40
2023-07-03T19:34:03.466Z,11.30
2023-07-03T19:37:06.849Z,11.57
2023-07-03T19:40:11.137Z,10.63
2023-07-03T19:43:15.810Z,11.60
2023-07-03T19:46:18.892Z,11.80
2023-07-03T19:49:23.419Z,11.87
2023-07-03T19:52:26.620Z,11.70
2023-07-03T19:55:29.757Z,11.00
2023-07-03T19:58:34.248Z,9.00
2023-07-03T20:01:38.817Z,8.03
2023-07-03T20:04:42.153Z,8.40
2023-07-03T20:07:45.214Z,8.60
2023-07-03T20:10:48.867Z,8.60
2023-07-03T20:13:54.602Z,7.80
2023-07-03T20:16:57.735Z,8.10
2023-07-03T20:20:00.896Z,8.50
2023-07-03T20:23:03.970Z,8.10
2023-07-03T20:26:07.048Z,8.67
2023-07-03T20:29:12.076Z,8.53
2023-07-03T20:32:15.124Z,7.97
2023-07-03T20:35:18.233Z,8.43
2023-07-03T20:38:21.238Z,8.10
2023-07-03T20:41:24.473Z,8.37
2023-07-03T20:44:29.043Z,7.37
2023-07-03T20:47:32.922Z,7.07
2023-07-03T20:50:36.003Z,6.20
2023-07-03T20:53:49.007Z,6.50
2023-07-03T20:56:52.223Z,6.90
2023-07-03T20:59:56.684Z,7.07
2023-07-03T21:02:59.867Z,6.60
2023-07-03T21:06:03.241Z,6.60
2023-07-03T21:09:07.117Z,6.70
2023-07-03T21:12:10.378Z,6.27
2023-07-03T21:15:14.916Z,6.30
2023-07-03T21:18:18.070Z,6.10
2023-07-03T21:21:23.419Z,6.87
2023-07-03T21:24:26.511Z,6.13
2023-07-03T21:27:29.873Z,6.10
2023-07-03T21:30:34.298Z,5.20
2023-07-03T21:33:37.315Z,6.03
2023-07-03T21:36:40.764Z,5.80
2023-07-03T21:39:43.806Z,5.90
2023-07-03T21:42:46.844Z,5.20
2023-07-03T21:46:02.052Z,6.27
2023-07-03T21:49:05.256Z,5.90
2023-07-03T21:52:08.475Z,6.50
2023-07-03T21:55:11.768Z,6.10
2023-07-03T21:58:14.915Z,5.80
2023-07-03T22:01:23.298Z,5.70
2023-07-03T22:04:28.090Z,5.70
2023-07-03T22:07:31.185Z,6.00
2023-07-03T22:10:34.259Z,5.93
2023-07-03T22:13:37.357Z,6.30
2023-07-03T22:16:42.047Z,5.10
2023-07-03T22:19:45.164Z,6.03
2023-07-03T22:22:49.202Z,5.60
2023-07-03T22:25:56.908Z,5.27
2023-07-03T22:29:00.161Z,5.57
2023-07-03T22:32:05.034Z,5.13
2023-07-03T22:35:08.791Z,6.27
2023-07-03T22:38:11.893Z,4.90
2023-07-03T22:41:16.093Z,5.50
2023-07-03T22:44:19.104Z,5.80
2023-07-03T22:47:23.801Z,5.87
2023-07-03T22:50:28.325Z,6.27
2023-07-03T22:53:31.397Z,5.67
2023-07-03T22:56:34.433Z,6.03
2023-07-03T22:59:37.670Z,5.90
2023-07-03T23:02:42.579Z,5.53
2023-07-03T23:05:47.145Z,5.83
2023-07-03T23:08:50.625Z,5.07
2023-07-03T23:11:54.429Z,5.33
2023-07-03T23:14:57.834Z,5.10
2023-07-03T23:18:02.416Z,5.33
2023-07-03T23:21:10.197Z,5.23
2023-07-03T23:24:13.419Z,5.33
2023-07-03T23:27:20.588Z,5.77
2023-07-03T23:30:24.127Z,5.40
2023-07-03T23:33:30.426Z,5.57
2023-07-03T23:36:34.773Z,4.97
2023-07-03T23:39:38.588Z,5.60
2023-07-03T23:42:41.791Z,5.43
2023-07-03T23:45:44.868Z,5.30
2023-07-03T23:48:49.997Z,5.60
2023-07-03T23:51:53.386Z,4.70
2023-07-03T23:54:58.889Z,4.97
2023-07-03T23:58:01.928Z,5.00
